createdAt,value
2024-02-29T14:49:43.500Z,85.93
2024-02-29T14:54:50.881Z,85.68
2024-02-29T14:59:58.387Z,85.71
2024-02-29T15:05:10.510Z,85.69
2024-02-29T15:10:22.309Z,85.71
2024-02-29T15:15:33.361Z,85.65
2024-02-29T15:20:47.996Z,85.61
2024-02-29T15:25:55.921Z,85.73
2024-02-29T15:31:03.282Z,85.61
2024-02-29T15:36:13.736Z,85.68
2024-02-29T15:41:21.681Z,85.68
2024-02-29T15:46:27.685Z,85.74
2024-02-29T15:51:35.543Z,85.70
2024-02-29T15:56:47.538Z,85.72
2024-02-29T16:01:55.481Z,85.87
2024-02-29T16:07:02.150Z,85.72
2024-02-29T16:12:13.225Z,85.54
2024-02-29T16:17:20.666Z,85.60
2024-02-29T16:22:28.706Z,85.74
2024-02-29T16:27:36.600Z,85.62
2024-02-29T16:32:47.309Z,85.72
2024-02-29T16:37:57.807Z,85.72
2024-02-29T16:43:07.388Z,85.56
2024-02-29T16:48:17.844Z,85.57
2024-02-29T16:53:25.903Z,85.65
2024-02-29T16:58:37.196Z,85.69
2024-02-29T17:03:48.895Z,85.61
2024-02-29T17:08:56.485Z,85.55
2024-02-29T17:14:04.046Z,85.55
2024-02-29T17:19:11.655Z,85.55
2024-02-29T17:24:24.614Z,85.45
2024-02-29T17:29:32.579Z,85.45
2024-02-29T17:34:39.987Z,85.40
2024-02-29T17:39:54.636Z,85.40
2024-02-29T17:45:12.415Z,85.36
2024-02-29T17:50:23.903Z,85.40
2024-02-29T17:55:31.648Z,85.19
2024-02-29T18:00:41.543Z,85.17
2024-02-29T18:05:52.079Z,85.17
2024-02-29T18:10:59.765Z,85.27
2024-02-29T18:16:08.643Z,85.21
2024-02-29T18:21:17.263Z,85.25
2024-02-29T18:26:24.716Z,85.13
2024-02-29T18:31:55.786Z,85.16
2024-02-29T18:37:03.292Z,85.38
2024-02-29T18:42:11.537Z,85.41
2024-02-29T18:47:21.879Z,85.52
2024-02-29T18:52:30.924Z,85.54
2024-02-29T18:57:49.664Z,85.61
2024-02-29T19:02:59.926Z,85.56
2024-02-29T19:08:22.642Z,85.65
2024-02-29T19:13:39.708Z,85.74
2024-02-29T19:18:58.518Z,85.70
2024-02-29T19:24:13.052Z,85.70
2024-02-29T19:29:22.753Z,85.77
2024-02-29T19:34:30.818Z,85.64
2024-02-29T19:39:41.414Z,85.75
2024-02-29T19:44:54.410Z,85.81
2024-02-29T19:50:57.000Z,85.89
2024-02-29T19:57:11.624Z,86.01
2024-02-29T20:02:43.263Z,86.02
2024-02-29T20:07:57.629Z,86.01
2024-02-29T20:13:09.339Z,86.09
2024-02-29T20:18:24.571Z,86.12
2024-02-29T20:23:33.059Z,86.09
2024-02-29T20:28:48.938Z,86.10
2024-02-29T20:34:00.167Z,86.09
2024-02-29T20:39:14.562Z,86.23
2024-02-29T20:44:43.785Z,86.17
2024-02-29T20:50:35.362Z,86.13
2024-02-29T20:56:26.640Z,86.22
2024-02-29T21:15:04.655Z,86.31
2024-02-29T21:20:18.013Z,86.34
2024-02-29T21:25:44.256Z,86.31
2024-02-29T21:31:10.069Z,86.37
2024-02-29T21:37:30.786Z,86.21
2024-02-29T21:43:03.192Z,86.33
2024-02-29T21:55:12.537Z,86.27
2024-02-29T22:00:30.573Z,86.24
2024-02-29T22:06:32.958Z,86.38
2024-02-29T22:11:58.079Z,86.36
2024-02-29T22:17:11.640Z,86.53
2024-02-29T22:22:22.576Z,86.53
2024-02-29T22:27:44.834Z,86.69
2024-02-29T22:33:13.950Z,86.58
2024-02-29T22:38:32.819Z,86.64
2024-02-29T22:43:47.238Z,86.64
2024-02-29T22:49:06.356Z,86.58
2024-02-29T22:54:13.035Z,86.69
2024-02-29T22:59:23.621Z,86.72
2024-02-29T23:04:41.565Z,86.77
2024-02-29T23:09:52.655Z,86.82
2024-02-29T23:15:05.406Z,86.88
2024-02-29T23:20:18.869Z,86.83
2024-02-29T23:25:28.461Z,87.13
2024-02-29T23:30:36.883Z,86.98
2024-02-29T23:35:47.323Z,87.00
2024-02-29T23:40:56.468Z,86.91
2024-02-29T23:46:08.786Z,87.08
2024-02-29T23:51:18.036Z,87.05
2024-02-29T23:56:28.024Z,87.06
